Aviation Digital Data Service (ADDS)

Output produced by METARs form (0124 UTC 23 July 2017)
found at http://www.aviationweather.gov/adds/metars/
 
KBWI 230054Z 26005KT 10SM FEW022 BKN120 OVC200 23/23 A2979 RMK AO2 SLP085 T02280228
KBWI 222335Z 2300/2406 26005KT P6SM BKN060 
     FM230300 24005KT 5SM SHRA VCTS OVC060CB 
     FM230600 25006KT P6SM VCTS BKN060CB 
     FM231100 27006KT P6SM BKN050 
     FM231800 27006KT P6SM -SHRA VCTS BKN045CB 
     FM240000 VRB04KT P6SM -SHRA BKN040
       
KMTN 230045Z 26003KT 10SM OVC070 25/24 A2979
KMTN 222335Z 2300/2324 24004KT P6SM BKN060 
     FM230300 22005KT 5SM SHRA VCTS OVC050CB 
     FM230600 24006KT P6SM VCTS BKN045CB 
     FM231100 27006KT P6SM BKN070 
     FM231900 18006KT P6SM BKN040 AMD NOT SKED 2302/2312
       
KCGE 230110Z AUTO VRB03KT 10SM FEW047 SCT060 SCT080 23/22 A2981 RMK A01
KADW 222338Z AUTO 13004KT 10SM -RA SCT013 22/21 A2979 RMK AO2 LTG DSNT S DZE2259RAB2259 SLP092
TAF AMD KADW 222245Z 2222/2323 26009KT 8000 -SHRA BKN040 OVC060 QNH2980INS 
     TEMPO 2222/2306 28020G35KT 4800 -TSRA OVC030CB 
     BECMG 2305/2306 21006KT 4800 BR OVC030 QNH2968INS 
     BECMG 2309/2310 30012KT 9999 NSW SCT030 BKN250 QNH2965INS TX34/2317Z TN23/2310Z
       
KCBE 230110Z AUTO 16005KT 5SM BKN008 BKN015 OVC020 22/22 A2987 RMK AO1
KFME 230109Z AUTO 00000KT 7SM SCT100 SCT120 22/21 A2982 RMK AO1
KFDK 230105Z AUTO 24004KT 10SM -RA SCT075 BKN095 OVC120 24/23 A2985 RMK AO2 LTG DSNT E AND SE
KGAI 230056Z AUTO 28004KT 10SM FEW095 22/22 A2983 RMK AO2 SLP121 T02220217
KHGR 230053Z 23006KT 4SM RA BR BKN085 OVC110 24/22 A2983 RMK AO2 LTG DSNT SW-NW RAB19 SLP104 P0009 T02390222
K2W6 230117Z AUTO 00000KT 10SM SCT090 BKN110 22/21 A2982 RMK AO1
K2G4 230110Z AUTO 22009KT 7SM BKN002 18/18 A2990 RMK AO1
KOXB 230111Z AUTO 24015G23KT 7SM -TSRA FEW033 SCT080 BKN110 25/23 A2986 RMK AO2 LTG DSNT SE-W TSB0055 PRESRR P0009 T02500233
KSBY 230055Z 21005KT 10 FEW050 BKN110 24/23 A2982 -RA
KSBY 230108Z 2301/2324 22006KT P6SM SCT060 BKN110 
     TEMPO 2301/2303 5SM -RA BR SCT050 BKN080 
     FM230300 22005KT P6SM SCT030 BKN200 
     FM231400 26008KT P6SM SCT040 BKN200
       
KW29 230105Z AUTO 00000KT 10SM BKN100 BKN120 25/23 A2977 RMK AO2 LTG DSNT S AND SW
KDMW 230110Z AUTO 26007KT 10SM SCT041 SCT065 BKN095 23/22 A2983 RMK AO2 LTG DSNT SE